Time;durP1;ratioP1;P1;durP2;ratioP2;P2;SDS_P1;SDS_P2;PMS_P1;PMS_P2;Temp;Humidity;BMP_temperature;BMP_pressure;BME280_temperature;BME280_humidity;BME280_pressure;Samples;Min_cycle;Max_cycle;Signal;HPM_P1;HPM_P2
2021/11/03 00:01:28;;;;;;;51.48;27.60;;;;;;;8.00;91.92;98729.84;1683448;85;21213;-64
2021/11/03 00:03:54;;;;;;;48.25;25.43;;;;;;;8.00;91.94;98734.74;1676624;85;20994;-62
2021/11/03 00:06:22;;;;;;;51.15;27.17;;;;;;;8.03;92.01;98736.05;1681200;85;21011;-63
2021/11/03 00:08:49;;;;;;;55.65;28.57;;;;;;;8.06;92.06;98739.52;1680849;85;20999;-63
2021/11/03 00:11:17;;;;;;;47.05;27.05;;;;;;;8.07;91.94;98734.84;1683500;84;21027;-62
2021/11/03 00:13:45;;;;;;;50.48;28.12;;;;;;;8.07;92.00;98733.47;1656685;85;21045;-64
2021/11/03 00:16:11;;;;;;;53.60;29.00;;;;;;;8.06;91.87;98734.59;1681347;85;21020;-62
2021/11/03 00:18:39;;;;;;;44.70;26.62;;;;;;;8.07;92.07;98737.00;1677044;85;21064;-63
2021/11/03 00:21:06;;;;;;;51.80;27.55;;;;;;;8.11;91.96;98738.54;1681487;85;21055;-63
2021/11/03 00:23:33;;;;;;;51.23;28.65;;;;;;;8.12;91.94;98737.43;1677661;85;21699;-63
2021/11/03 00:26:00;;;;;;;56.33;27.22;;;;;;;8.13;91.90;98739.03;1681924;85;21107;-62
2021/11/03 00:28:28;;;;;;;53.08;29.42;;;;;;;8.11;91.75;98731.13;1679418;85;21511;-63
2021/11/03 00:30:56;;;;;;;49.55;28.20;;;;;;;8.09;91.74;98736.67;1680878;85;21059;-64
2021/11/03 00:33:24;;;;;;;49.60;28.80;;;;;;;8.08;91.79;98733.70;1681489;85;21049;-63
2021/11/03 00:35:51;;;;;;;53.65;28.98;;;;;;;8.05;91.78;98735.17;1683657;85;21008;-62
2021/11/03 00:38:19;;;;;;;53.92;30.82;;;;;;;8.06;91.96;98734.59;1683227;85;21785;-61
2021/11/03 00:40:45;;;;;;;51.70;29.60;;;;;;;8.08;92.03;98735.89;1652544;85;21078;-62
2021/11/03 00:43:11;;;;;;;50.35;28.65;;;;;;;8.11;92.02;98734.42;1680438;85;21058;-64
2021/11/03 00:45:40;;;;;;;46.40;27.58;;;;;;;8.07;92.02;98730.14;1683300;85;21015;-61
2021/11/03 00:48:08;;;;;;;51.80;27.93;;;;;;;8.08;92.09;98738.64;1679407;85;21139;-64
2021/11/03 00:50:36;;;;;;;54.00;27.25;;;;;;;8.09;92.17;98739.42;1674464;85;21920;-63
2021/11/03 00:53:03;;;;;;;55.48;29.15;;;;;;;8.08;92.16;98730.41;1655358;85;21083;-63
2021/11/03 00:55:30;;;;;;;55.95;28.25;;;;;;;8.11;92.08;98733.05;1674560;85;21085;-62
2021/11/03 00:57:56;;;;;;;49.15;28.52;;;;;;;8.11;92.07;98732.50;1680094;85;21511;-61
2021/11/03 01:00:23;;;;;;;47.93;27.20;;;;;;;8.11;92.10;98733.05;1674535;85;21122;-61
2021/11/03 01:02:50;;;;;;;46.65;26.02;;;;;;;8.09;92.19;98732.01;1677198;85;21131;-63
2021/11/03 01:05:22;;;;;;;48.92;27.70;;;;;;;8.10;92.29;98732.23;1679927;85;21011;-62
2021/11/03 01:07:49;;;;;;;50.05;27.85;;;;;;;8.12;92.27;98736.06;1671615;85;21083;-62
2021/11/03 01:10:16;;;;;;;46.45;25.92;;;;;;;8.08;92.25;98726.84;1652651;86;21081;-61
2021/11/03 01:12:43;;;;;;;51.45;29.07;;;;;;;8.09;92.34;98736.67;1677100;85;21053;-61
2021/11/03 01:15:12;;;;;;;46.25;26.37;;;;;;;8.11;92.30;98727.56;1674191;85;21139;-63
2021/11/03 01:17:38;;;;;;;52.25;28.70;;;;;;;8.12;92.34;98727.83;1671956;85;21019;-61
2021/11/03 01:20:07;;;;;;;50.80;27.10;;;;;;;8.13;92.44;98722.56;1670489;85;21486;-63
2021/11/03 01:22:34;;;;;;;66.17;26.87;;;;;;;8.16;92.46;98730.15;1675628;85;21055;-62
2021/11/03 01:25:01;;;;;;;49.03;27.58;;;;;;;8.18;92.51;98726.52;1677213;85;21026;-61
2021/11/03 01:27:27;;;;;;;50.12;28.17;;;;;;;8.21;92.47;98723.69;1675795;85;21591;-63
2021/11/03 01:29:53;;;;;;;50.20;27.50;;;;;;;8.22;92.48;98723.36;1649960;85;21759;-64
2021/11/03 01:32:20;;;;;;;51.83;28.47;;;;;;;8.24;92.38;98727.97;1679809;85;22490;-61
2021/11/03 01:34:46;;;;;;;45.55;26.35;;;;;;;8.24;92.34;98722.47;1674642;85;21063;-62
2021/11/03 01:37:12;;;;;;;54.58;27.67;;;;;;;8.25;92.30;98724.11;1679405;85;21074;-61
2021/11/03 01:39:39;;;;;;;57.00;28.00;;;;;;;8.26;92.35;98724.34;1674966;85;21574;-61
2021/11/03 01:42:05;;;;;;;44.58;26.17;;;;;;;8.28;92.35;98729.50;1653348;85;21712;-62
2021/11/03 01:44:32;;;;;;;68.12;28.85;;;;;;;8.27;92.25;98725.94;1678159;84;20999;-61
2021/11/03 01:47:39;;;;;;;44.18;25.95;;;;;;;8.26;92.25;98724.34;1677157;85;21006;-61
2021/11/03 01:50:21;;;;;;;53.95;29.52;;;;;;;8.27;92.25;98727.31;1670024;84;21073;-63
2021/11/03 01:52:57;;;;;;;53.98;28.67;;;;;;;8.26;92.33;98727.64;1635623;87;21964;-63
2021/11/03 01:55:25;;;;;;;53.08;27.60;;;;;;;8.28;92.43;98733.62;1645412;86;21489;-64
2021/11/03 01:57:56;;;;;;;56.75;27.32;;;;;;;8.28;92.40;98728.13;1656474;85;21062;-63
2021/11/03 02:00:27;;;;;;;47.75;25.25;;;;;;;8.28;92.38;98733.62;1650955;85;21071;-62
2021/11/03 02:03:04;;;;;;;47.35;27.45;;;;;;;8.28;92.49;98726.20;1680541;84;21024;-62
2021/11/03 02:05:30;;;;;;;47.88;26.60;;;;;;;8.28;92.40;98728.13;1680561;84;21968;-62
2021/11/03 02:07:58;;;;;;;45.95;25.72;;;;;;;8.28;92.47;98729.50;1676793;84;21042;-64
2021/11/03 02:10:25;;;;;;;45.23;24.75;;;;;;;8.28;92.48;98722.08;1680074;85;21475;-62
2021/11/03 02:12:54;;;;;;;41.30;24.10;;;;;;;8.29;92.53;98728.36;1681447;85;21066;-62
2021/11/03 02:15:20;;;;;;;44.13;25.35;;;;;;;8.30;92.46;98726.43;1653944;86;21126;-62
2021/11/03 02:17:47;;;;;;;43.80;24.52;;;;;;;8.30;92.59;98727.24;1656901;86;21611;-62
2021/11/03 02:20:15;;;;;;;47.03;25.10;;;;;;;8.31;92.67;98729.44;1653858;85;21118;-62
2021/11/03 02:22:57;;;;;;;48.50;25.62;;;;;;;8.32;92.66;98726.92;1682928;84;21591;-63
2021/11/03 02:25:37;;;;;;;44.15;24.63;;;;;;;8.33;92.64;98733.45;1685522;85;21028;-63
2021/11/03 02:28:04;;;;;;;49.85;26.93;;;;;;;8.32;92.59;98726.36;1685805;85;21047;-61
2021/11/03 02:30:32;;;;;;;45.70;25.27;;;;;;;8.32;92.64;98722.80;1656105;85;21508;-63
2021/11/03 02:33:03;;;;;;;44.65;25.10;;;;;;;8.32;92.68;98724.98;1677618;85;21495;-62
2021/11/03 02:35:30;;;;;;;46.68;25.20;;;;;;;8.34;92.79;98717.80;1669708;85;21510;-61
2021/11/03 02:37:58;;;;;;;41.77;24.32;;;;;;;8.35;92.78;98716.66;1684821;84;21023;-62
2021/11/03 02:40:52;;;;;;;41.20;24.82;;;;;;;8.36;92.84;98722.41;1678976;84;21031;-62
2021/11/03 02:43:32;;;;;;;47.00;25.93;;;;;;;8.37;92.78;98725.38;1686126;84;21127;-61
2021/11/03 02:46:00;;;;;;;48.42;26.68;;;;;;;8.36;92.75;98729.27;1652189;85;21028;-62
2021/11/03 02:48:29;;;;;;;44.00;26.12;;;;;;;8.30;92.71;98732.73;1680236;85;21066;-62
2021/11/03 02:51:07;;;;;;;49.73;26.70;;;;;;;8.26;92.78;98737.25;1660141;85;21574;-61
2021/11/03 02:53:53;;;;;;;42.85;24.82;;;;;;;8.26;92.98;98741.36;1679529;85;21060;-61
2021/11/03 02:56:24;;;;;;;47.48;26.60;;;;;;;8.23;93.01;98749.69;1657199;85;22423;-62
2021/11/03 02:58:51;;;;;;;44.42;24.50;;;;;;;8.23;93.13;98752.44;1681351;85;21543;-62
2021/11/03 03:01:31;;;;;;;44.50;25.08;;;;;;;8.24;93.19;98757.37;1683473;85;21054;-63
2021/11/03 03:03:58;;;;;;;48.42;27.17;;;;;;;8.24;93.34;98756.78;1678354;85;21905;-61
2021/11/03 03:06:29;;;;;;;49.33;26.42;;;;;;;8.26;93.40;98753.16;1674933;84;21477;-62
2021/11/03 03:08:57;;;;;;;50.00;27.27;;;;;;;8.25;93.39;98759.78;1681646;85;21916;-62
2021/11/03 03:11:26;;;;;;;47.95;28.27;;;;;;;8.26;93.40;98759.20;1681696;84;21046;-63
2021/11/03 03:13:52;;;;;;;47.83;24.52;;;;;;;8.25;93.49;98746.62;1681315;85;21020;-63
2021/11/03 03:16:20;;;;;;;49.53;26.42;;;;;;;8.23;93.54;98749.69;1658158;85;21018;-61
2021/11/03 03:18:47;;;;;;;51.40;26.60;;;;;;;8.24;93.71;98745.80;1678145;85;21567;-63
2021/11/03 03:21:14;;;;;;;49.03;25.45;;;;;;;8.26;93.72;98743.55;1658687;85;21292;-63
2021/11/03 03:23:42;;;;;;;41.08;24.65;;;;;;;8.26;93.84;98735.31;1679135;85;21531;-61
2021/11/03 03:26:20;;;;;;;44.15;24.67;;;;;;;8.29;93.84;98731.10;1683276;85;21059;-63
2021/11/03 03:28:48;;;;;;;45.65;24.57;;;;;;;8.29;93.88;98722.88;1685768;85;21043;-63
2021/11/03 03:31:15;;;;;;;41.20;24.37;;;;;;;8.31;93.93;98725.31;1683608;85;20987;-62
2021/11/03 03:33:44;;;;;;;43.68;25.68;;;;;;;8.32;93.98;98725.55;1681538;85;21203;-63
2021/11/03 03:36:11;;;;;;;48.20;25.57;;;;;;;8.32;93.96;98723.62;1681989;85;21523;-62
2021/11/03 03:38:38;;;;;;;48.78;26.57;;;;;;;8.30;94.05;98727.24;1657634;85;21093;-61
2021/11/03 03:41:04;;;;;;;41.25;26.50;;;;;;;8.30;93.97;98731.92;1683474;85;21070;-61
2021/11/03 03:43:31;;;;;;;49.58;26.50;;;;;;;8.30;94.18;98742.34;1682604;85;21094;-61
2021/11/03 03:45:58;;;;;;;52.95;27.27;;;;;;;8.32;94.28;98743.39;1652678;85;21511;-62
2021/11/03 03:48:26;;;;;;;41.23;25.68;;;;;;;8.34;94.39;98737.80;1682912;85;21516;-61
2021/11/03 03:50:54;;;;;;;48.98;27.10;;;;;;;8.35;94.32;98744.11;1678297;84;21022;-61
2021/11/03 03:53:22;;;;;;;41.02;24.43;;;;;;;8.33;94.14;98744.99;1672442;84;21424;-62
2021/11/03 03:55:50;;;;;;;50.28;25.60;;;;;;;8.30;94.29;98746.45;1670198;84;21516;-62
2021/11/03 03:58:19;;;;;;;51.30;25.25;;;;;;;8.30;94.39;98744.27;1673135;84;21150;-63
2021/11/03 04:00:48;;;;;;;39.92;24.80;;;;;;;8.30;94.54;98740.97;1672660;84;21075;-62
2021/11/03 04:03:16;;;;;;;45.95;25.77;;;;;;;8.28;94.49;98739.11;1666514;84;21059;-61
2021/11/03 04:05:44;;;;;;;44.90;24.75;;;;;;;8.28;94.63;98733.62;1624518;86;21096;-63
2021/11/03 04:08:13;;;;;;;43.78;24.87;;;;;;;8.27;94.72;98728.69;1664489;86;21032;-62
2021/11/03 04:10:41;;;;;;;38.53;23.32;;;;;;;8.30;94.91;98736.85;1653811;86;21140;-62
2021/11/03 04:13:10;;;;;;;42.20;24.65;;;;;;;8.32;94.92;98749.69;1653634;86;21481;-62
2021/11/03 04:15:38;;;;;;;38.60;22.75;;;;;;;8.35;95.00;98745.48;1655299;86;21098;-61
2021/11/03 04:18:05;;;;;;;40.00;25.37;;;;;;;8.35;94.86;98751.78;1673027;84;21012;-61
2021/11/03 04:20:32;;;;;;;37.13;22.90;;;;;;;8.34;94.91;98754.86;1644681;86;21515;-61
2021/11/03 04:23:00;;;;;;;41.80;24.30;;;;;;;8.35;95.13;98753.72;1667413;84;21181;-62
2021/11/03 04:25:27;;;;;;;36.58;21.90;;;;;;;8.33;95.19;98751.30;1646122;84;21194;-63
2021/11/03 04:27:55;;;;;;;46.68;24.90;;;;;;;8.35;95.24;98748.22;1667553;84;21102;-64
2021/11/03 04:30:22;;;;;;;38.73;23.45;;;;;;;8.35;95.27;98750.97;1672370;84;21006;-63
2021/11/03 04:32:49;;;;;;;40.12;22.65;;;;;;;8.36;95.37;98755.34;1665314;84;21531;-63
2021/11/03 04:35:16;;;;;;;41.28;24.32;;;;;;;8.38;95.45;98755.25;1649330;86;21084;-64
2021/11/03 04:37:43;;;;;;;45.52;24.52;;;;;;;8.40;95.51;98759.04;1668494;84;21054;-63
2021/11/03 04:40:13;;;;;;;41.65;23.92;;;;;;;8.40;95.60;98758.48;1664988;84;21039;-63
2021/11/03 04:42:41;;;;;;;45.05;23.30;;;;;;;8.43;95.59;98757.02;1659680;84;21577;-62
2021/11/03 04:45:09;;;;;;;38.90;23.55;;;;;;;8.42;95.58;98762.28;1672066;84;21118;-61
2021/11/03 04:47:35;;;;;;;43.52;23.55;;;;;;;8.40;95.68;98761.78;1671217;84;21161;-62
2021/11/03 04:50:05;;;;;;;44.15;23.98;;;;;;;8.42;95.87;98768.33;1672026;84;21022;-63
2021/11/03 04:52:32;;;;;;;41.40;23.52;;;;;;;8.45;95.94;98764.92;1681927;84;21075;-63
2021/11/03 04:55:00;;;;;;;41.88;23.98;;;;;;;8.47;95.97;98766.79;1658096;85;21074;-62
2021/11/03 04:57:28;;;;;;;35.78;21.60;;;;;;;8.48;96.00;98773.88;1681325;85;21050;-63
2021/11/03 05:00:03;;;;;;;35.43;22.52;;;;;;;8.47;95.92;98772.28;1680596;85;21048;-61
2021/11/03 05:02:27;;;;;;;34.70;20.12;;;;;;;8.43;95.98;98772.11;1683012;85;21066;-62
2021/11/03 05:04:54;;;;;;;34.55;22.17;;;;;;;8.40;96.07;98776.33;1651181;85;21062;-63
2021/11/03 05:07:20;;;;;;;36.90;20.85;;;;;;;8.43;96.22;98774.86;1681356;84;21020;-63
2021/11/03 05:09:47;;;;;;;32.75;19.98;;;;;;;8.44;96.26;98777.87;1681097;85;21133;-62
2021/11/03 05:12:15;;;;;;;34.43;20.10;;;;;;;8.44;96.33;98777.05;1683250;85;21079;-61
2021/11/03 05:14:43;;;;;;;32.88;19.55;;;;;;;8.45;96.41;98780.84;1683521;85;21520;-62
2021/11/03 05:17:12;;;;;;;31.55;19.95;;;;;;;8.48;96.45;98780.19;1655852;85;21084;-61
2021/11/03 05:19:38;;;;;;;30.88;19.37;;;;;;;8.49;96.36;98781.00;1653623;85;21059;-62
2021/11/03 05:22:10;;;;;;;37.53;20.57;;;;;;;8.47;96.39;98778.59;1680785;85;21499;-63
2021/11/03 05:24:36;;;;;;;30.23;19.00;;;;;;;8.45;96.46;98781.40;1680289;85;21105;-64
2021/11/03 05:27:04;;;;;;;30.27;18.95;;;;;;;8.46;96.66;98777.54;1657348;86;21154;-61
2021/11/03 05:29:31;;;;;;;29.65;19.17;;;;;;;8.49;96.67;98781.00;1648420;84;21101;-61
2021/11/03 05:31:57;;;;;;;26.90;17.77;;;;;;;8.47;96.71;98780.52;1673845;85;21557;-60
2021/11/03 05:34:24;;;;;;;25.32;16.90;;;;;;;8.49;96.74;98781.00;1679288;85;21047;-61
2021/11/03 05:36:52;;;;;;;29.27;17.37;;;;;;;8.47;96.77;98774.47;1680805;84;21467;-62
2021/11/03 05:39:20;;;;;;;26.77;17.77;;;;;;;8.49;96.85;98780.45;1680985;85;21024;-62
2021/11/03 05:41:48;;;;;;;22.87;16.17;;;;;;;8.53;97.00;98782.77;1655152;85;21107;-63
2021/11/03 05:44:16;;;;;;;26.30;17.65;;;;;;;8.58;97.10;98794.77;1658124;85;21050;-61
2021/11/03 05:46:50;;;;;;;27.50;17.23;;;;;;;8.62;97.11;98808.07;1682404;85;21035;-62
2021/11/03 05:49:18;;;;;;;28.20;15.57;;;;;;;8.64;97.00;98814.05;1677850;85;21844;-61
2021/11/03 05:51:46;;;;;;;25.62;17.37;;;;;;;8.64;96.89;98821.73;1679847;84;21039;-62
2021/11/03 05:54:14;;;;;;;28.42;16.93;;;;;;;8.62;96.93;98822.62;1623065;86;21504;-61
2021/11/03 05:56:42;;;;;;;25.17;15.30;;;;;;;8.64;96.90;98833.28;1655358;86;21158;-62
2021/11/03 05:59:08;;;;;;;25.92;15.78;;;;;;;8.64;96.92;98844.27;1675512;85;21012;-61
2021/11/03 06:01:35;;;;;;;23.65;15.10;;;;;;;8.63;96.83;98846.19;1679875;84;21113;-61
2021/11/03 06:04:01;;;;;;;27.30;15.80;;;;;;;8.62;96.84;98845.96;1683190;84;21469;-61
2021/11/03 06:06:28;;;;;;;21.52;14.87;;;;;;;8.63;96.83;98852.27;1687460;84;21063;-61
2021/11/03 06:08:54;;;;;;;22.73;14.35;;;;;;;8.61;96.78;98852.59;1688556;84;21028;-61
2021/11/03 06:11:24;;;;;;;25.37;16.23;;;;;;;8.63;96.93;98857.77;1682154;84;21590;-61
2021/11/03 06:13:52;;;;;;;25.82;15.40;;;;;;;8.66;97.01;98859.04;1683661;84;21168;-61
2021/11/03 06:16:18;;;;;;;25.62;15.15;;;;;;;8.70;97.05;98860.02;1652857;85;21041;-62
2021/11/03 06:18:44;;;;;;;23.38;15.32;;;;;;;8.72;97.06;98861.30;1687274;84;21633;-62
2021/11/03 06:21:11;;;;;;;24.57;14.13;;;;;;;8.73;97.01;98862.94;1670364;84;21105;-61
2021/11/03 06:23:38;;;;;;;26.55;14.78;;;;;;;8.76;97.04;98871.08;1685586;84;21604;-62
2021/11/03 06:26:05;;;;;;;22.62;14.47;;;;;;;8.71;96.81;98866.56;1684895;84;21166;-62
2021/11/03 06:28:32;;;;;;;23.38;13.75;;;;;;;8.69;96.94;98871.56;1676526;84;21055;-62
2021/11/03 06:30:59;;;;;;;22.22;14.18;;;;;;;8.72;97.04;98872.29;1688218;84;21145;-61
2021/11/03 06:33:25;;;;;;;18.90;13.03;;;;;;;8.73;97.11;98868.43;1652127;85;21092;-61
2021/11/03 06:35:54;;;;;;;19.62;11.95;;;;;;;8.78;97.22;98878.99;1683863;84;21081;-62
2021/11/03 06:38:21;;;;;;;13.08;9.53;;;;;;;8.82;97.27;98873.89;1666618;84;21778;-62
2021/11/03 06:40:47;;;;;;;17.15;9.58;;;;;;;8.87;97.28;98875.11;1680700;84;21058;-62
2021/11/03 06:43:14;;;;;;;16.15;7.97;;;;;;;8.91;97.24;98884.88;1677683;84;21019;-63
2021/11/03 06:45:41;;;;;;;12.30;8.60;;;;;;;8.93;97.18;98877.69;1677537;84;21072;-61
2021/11/03 06:48:08;;;;;;;12.80;7.97;;;;;;;8.96;97.27;98879.22;1671833;85;21075;-62
2021/11/03 06:50:37;;;;;;;12.65;8.70;;;;;;;8.97;97.15;98884.95;1675393;85;21094;-62
2021/11/03 06:53:07;;;;;;;10.25;7.80;;;;;;;8.96;96.98;98883.91;1649455;85;21516;-61
2021/11/03 06:55:37;;;;;;;11.25;7.80;;;;;;;8.95;96.97;98891.36;1649532;85;21540;-61
2021/11/03 06:58:04;;;;;;;14.30;8.28;;;;;;;8.95;96.99;98890.55;1655269;84;21034;-61
2021/11/03 07:00:35;;;;;;;12.43;7.47;;;;;;;8.96;96.98;98895.71;1670568;84;21030;-61
2021/11/03 07:03:03;;;;;;;10.32;6.90;;;;;;;8.97;97.11;98895.94;1685845;84;21786;-61
2021/11/03 07:05:30;;;;;;;9.35;6.70;;;;;;;9.00;97.17;98896.69;1688567;84;21030;-61
2021/11/03 07:07:57;;;;;;;10.28;7.10;;;;;;;9.03;97.08;98904.02;1688523;84;21147;-61
2021/11/03 07:10:27;;;;;;;12.43;7.67;;;;;;;9.04;97.10;98899.57;1688595;84;21028;-60
2021/11/03 07:12:55;;;;;;;11.03;8.05;;;;;;;9.04;97.01;98909.78;1689182;84;21118;-61
2021/11/03 07:15:22;;;;;;;12.00;7.87;;;;;;;9.02;97.00;98903.23;1688391;84;21224;-62
2021/11/03 07:17:48;;;;;;;11.75;8.05;;;;;;;9.03;97.17;98906.21;1689602;84;21558;-61
2021/11/03 07:20:15;;;;;;;12.37;7.67;;;;;;;9.07;97.24;98907.75;1689652;84;21066;-61
2021/11/03 07:22:41;;;;;;;12.98;8.58;;;;;;;9.09;97.27;98909.61;1687613;84;22157;-63
2021/11/03 07:25:08;;;;;;;13.85;9.30;;;;;;;9.13;97.40;98909.19;1687213;84;21114;-60
2021/11/03 07:27:34;;;;;;;14.07;8.83;;;;;;;9.17;97.40;98919.78;1674408;84;21840;-60
2021/11/03 07:30:01;;;;;;;12.93;8.80;;;;;;;9.20;97.33;98910.06;1645444;84;21062;-60
2021/11/03 07:32:27;;;;;;;15.13;8.00;;;;;;;9.21;97.33;98911.11;1650799;85;21118;-60
2021/11/03 07:34:54;;;;;;;14.90;9.58;;;;;;;9.23;97.44;98909.41;1641099;85;21098;-62
2021/11/03 07:37:20;;;;;;;15.05;9.40;;;;;;;9.28;97.56;98910.61;1673234;84;21085;-62
2021/11/03 07:39:46;;;;;;;13.13;8.80;;;;;;;9.31;97.46;98914.11;1654250;85;21057;-61
2021/11/03 07:42:13;;;;;;;15.10;9.28;;;;;;;9.33;97.38;98919.28;1684350;84;21548;-60
2021/11/03 07:44:41;;;;;;;15.35;10.00;;;;;;;9.35;97.35;98920.55;1678510;84;21056;-62
2021/11/03 07:47:07;;;;;;;14.03;8.78;;;;;;;9.38;97.41;98913.61;1650230;85;21125;-61
2021/11/03 07:49:34;;;;;;;14.58;8.35;;;;;;;9.43;97.47;98920.88;1669843;85;21551;-61
2021/11/03 07:52:00;;;;;;;18.65;9.95;;;;;;;9.45;97.41;98919.98;1686076;84;21137;-60
2021/11/03 07:54:27;;;;;;;13.90;9.73;;;;;;;9.47;97.41;98924.56;1683550;84;21015;-60
2021/11/03 07:56:53;;;;;;;17.07;9.40;;;;;;;9.48;97.36;98931.11;1658637;84;21121;-62
2021/11/03 07:59:21;;;;;;;13.80;9.28;;;;;;;9.49;97.23;98927.80;1677393;85;21015;-62
2021/11/03 08:01:48;;;;;;;14.28;8.93;;;;;;;9.50;97.33;98927.47;1662267;85;21074;-60
2021/11/03 08:04:14;;;;;;;12.73;8.73;;;;;;;9.53;97.32;98923.28;1677808;85;21124;-61
2021/11/03 08:06:41;;;;;;;15.68;10.85;;;;;;;9.55;97.26;98932.58;1660003;85;21078;-60
2021/11/03 08:09:07;;;;;;;13.58;8.95;;;;;;;9.56;97.29;98937.74;1683958;84;21026;-60
2021/11/03 08:11:46;;;;;;;14.63;9.35;;;;;;;9.60;97.38;98937.90;1659856;85;21512;-63
2021/11/03 08:14:06;;;;;;;20.17;10.75;;;;;;;9.65;97.44;98935.53;1675610;85;21547;-62
2021/11/03 08:16:52;;;;;;;16.25;10.08;;;;;;;9.68;97.37;98934.87;1661175;85;21188;-60
2021/11/03 08:19:21;;;;;;;16.82;10.10;;;;;;;9.71;97.38;98935.59;1657515;84;21132;-62
2021/11/03 08:21:47;;;;;;;15.65;10.38;;;;;;;9.76;97.41;98936.00;1689003;84;21004;-62
2021/11/03 08:24:13;;;;;;;18.20;10.80;;;;;;;9.78;97.40;98931.77;1662964;84;21605;-63
2021/11/03 08:26:40;;;;;;;19.37;10.75;;;;;;;9.82;97.44;98934.67;1686537;84;21121;-63
2021/11/03 08:29:06;;;;;;;18.27;10.70;;;;;;;9.84;97.52;98934.56;1684010;84;22036;-63
2021/11/03 08:31:34;;;;;;;19.40;13.00;;;;;;;9.91;97.62;98937.40;1683530;84;21038;-63
2021/11/03 08:34:00;;;;;;;24.02;14.25;;;;;;;9.95;97.59;98946.59;1683043;84;21078;-61
2021/11/03 08:36:27;;;;;;;23.85;14.28;;;;;;;9.98;97.51;98943.98;1679700;84;21047;-61
2021/11/03 08:38:54;;;;;;;21.73;13.05;;;;;;;10.01;97.39;98945.30;1685626;84;21211;-61
2021/11/03 08:41:21;;;;;;;18.35;11.73;;;;;;;10.04;97.33;98953.44;1693881;84;21327;-62
2021/11/03 08:43:48;;;;;;;24.92;14.25;;;;;;;10.07;97.19;98959.66;1662456;84;21038;-62
2021/11/03 08:46:15;;;;;;;20.97;12.58;;;;;;;10.06;97.04;98962.19;1683697;84;21016;-63
2021/11/03 08:48:42;;;;;;;19.85;13.62;;;;;;;10.06;97.14;98963.00;1659430;85;21602;-64
2021/11/03 08:51:09;;;;;;;26.12;13.35;;;;;;;10.07;97.07;98961.85;1678430;85;36505;-63
2021/11/03 08:53:36;;;;;;;28.42;14.10;;;;;;;10.09;97.02;98971.16;1685493;84;21153;-61
2021/11/03 08:56:05;;;;;;;20.43;13.62;;;;;;;10.10;97.04;98976.88;1678898;85;21459;-63
2021/11/03 08:58:33;;;;;;;22.65;15.32;;;;;;;10.13;97.02;98978.19;1679923;85;21863;-61
2021/11/03 09:00:59;;;;;;;23.18;15.40;;;;;;;10.15;96.92;98986.34;1674046;85;21129;-61
2021/11/03 09:03:26;;;;;;;24.98;15.45;;;;;;;10.17;96.83;98995.64;1638662;86;22061;-63
2021/11/03 09:05:54;;;;;;;27.95;16.05;;;;;;;10.16;96.76;98989.34;1684441;84;21118;-62
2021/11/03 09:08:21;;;;;;;26.37;15.20;;;;;;;10.18;96.81;98988.45;1626468;86;21230;-62
2021/11/03 09:10:51;;;;;;;24.27;16.20;;;;;;;10.20;96.78;98997.76;1628072;86;21031;-61
2021/11/03 09:13:20;;;;;;;24.32;16.77;;;;;;;10.22;96.93;98994.90;1663217;86;21556;-62
2021/11/03 09:15:47;;;;;;;31.10;18.55;;;;;;;10.28;96.90;98996.09;1668923;84;21020;-61
2021/11/03 09:18:15;;;;;;;33.23;21.15;;;;;;;10.32;96.96;98995.69;1674592;84;21136;-62
2021/11/03 09:20:43;;;;;;;31.85;18.85;;;;;;;10.35;96.89;98997.18;1655910;84;21028;-64
2021/11/03 09:23:12;;;;;;;31.55;18.73;;;;;;;10.40;96.86;98993.45;1653629;84;21115;-62
2021/11/03 09:25:39;;;;;;;30.82;18.85;;;;;;;10.44;96.76;98999.11;1655035;84;21480;-61
2021/11/03 09:28:06;;;;;;;26.23;17.35;;;;;;;10.47;96.56;98998.47;1674659;85;21084;-61
2021/11/03 09:30:32;;;;;;;27.87;17.70;;;;;;;10.49;96.49;99003.64;1681446;84;21169;-60
2021/11/03 09:33:02;;;;;;;31.15;18.92;;;;;;;10.53;96.48;99002.64;1684377;84;21020;-61
2021/11/03 09:35:34;;;;;;;30.37;18.32;;;;;;;10.55;96.30;99003.68;1634804;85;21068;-61
2021/11/03 09:38:01;;;;;;;35.63;21.02;;;;;;;10.58;96.18;99008.52;1671794;84;21480;-61
2021/11/03 09:40:35;;;;;;;35.30;18.95;;;;;;;10.60;96.09;99009.00;1667159;85;21500;-63
2021/11/03 09:43:04;;;;;;;30.40;18.65;;;;;;;10.64;96.10;99011.91;1682308;84;21086;-62
2021/11/03 09:45:34;;;;;;;31.57;19.87;;;;;;;10.68;96.05;99004.60;1687795;84;21477;-61
2021/11/03 09:48:26;;;;;;;30.77;18.85;;;;;;;10.72;95.96;99013.80;1686140;84;21051;-62
2021/11/03 09:50:58;;;;;;;29.15;20.02;;;;;;;10.75;95.73;99023.36;1683771;84;20979;-63
2021/11/03 09:53:50;;;;;;;33.58;22.00;;;;;;;10.78;95.60;99023.48;1684504;84;21055;-62
2021/11/03 09:56:25;;;;;;;35.58;22.62;;;;;;;10.79;95.49;99022.35;1684966;84;21793;-63
2021/11/03 09:59:23;;;;;;;38.17;21.75;;;;;;;10.80;95.32;99027.27;1671414;85;20996;-61
2021/11/03 10:02:23;;;;;;;38.95;22.50;;;;;;;10.80;95.17;99039.11;1673343;85;21023;-63
2021/11/03 10:05:26;;;;;;;35.98;23.02;;;;;;;10.81;95.20;99039.93;1664791;85;21106;-63
2021/11/03 10:08:05;;;;;;;38.40;22.62;;;;;;;10.80;95.10;99043.25;1650578;85;21563;-62
2021/11/03 10:10:39;;;;;;;44.05;27.15;;;;;;;10.80;95.07;99040.48;1679378;85;21106;-61
2021/11/03 10:33:45;;;;;;;38.92;24.75;;;;;;;12.14;92.61;99057.59;1829371;77;20966;-64
2021/11/03 10:43:40;;;;;;;46.75;28.77;;;;;;;12.12;90.59;99059.06;1832301;77;20991;-62
2021/11/03 10:46:34;;;;;;;35.63;24.55;;;;;;;12.03;89.59;99070.98;1795115;77;21111;-62
2021/11/03 10:49:34;;;;;;;41.55;27.70;;;;;;;11.92;89.40;99076.11;1834230;77;21018;-62
2021/11/03 10:52:28;;;;;;;45.08;27.93;;;;;;;11.84;89.46;99074.25;1805097;77;20965;-63
2021/11/03 10:54:58;;;;;;;44.90;27.00;;;;;;;11.80;89.23;99069.19;1828141;77;20973;-63
2021/11/03 10:57:37;;;;;;;38.88;26.65;;;;;;;11.73;88.83;99070.30;1828279;77;22298;-63
2021/11/03 11:00:35;;;;;;;38.58;26.35;;;;;;;11.67;88.95;99069.13;1835741;77;21099;-64
2021/11/03 11:03:20;;;;;;;42.70;26.50;;;;;;;11.68;89.13;99067.19;1827738;77;21531;-63
2021/11/03 11:05:52;;;;;;;38.17;24.95;;;;;;;11.74;89.35;99069.14;1808405;77;21085;-63
2021/11/03 11:08:26;;;;;;;38.65;27.20;;;;;;;11.84;89.27;99075.62;1834280;77;20960;-65
2021/11/03 11:11:03;;;;;;;41.65;26.90;;;;;;;11.97;89.45;99075.68;1830577;77;21033;-64
2021/11/03 11:13:38;;;;;;;41.35;25.97;;;;;;;12.08;88.87;99082.38;1817449;77;21086;-62
2021/11/03 11:16:16;;;;;;;42.20;27.00;;;;;;;12.16;88.42;99083.48;1801446;79;21047;-65
2021/11/03 11:19:04;;;;;;;39.15;26.90;;;;;;;12.29;88.46;99090.64;1802040;79;21089;-63
2021/11/03 11:21:51;;;;;;;38.20;24.02;;;;;;;12.52;87.55;99090.80;1777847;79;21011;-63
2021/11/03 11:24:29;;;;;;;39.63;26.10;;;;;;;12.71;87.18;99094.36;1801704;78;21574;-64
2021/11/03 11:27:23;;;;;;;39.10;26.35;;;;;;;12.81;85.36;99094.47;1801617;79;21141;-66
2021/11/03 11:30:14;;;;;;;41.13;24.33;;;;;;;12.81;84.96;99104.14;1778744;79;20992;-66
2021/11/03 11:33:05;;;;;;;42.35;26.60;;;;;;;12.80;83.78;99116.36;1765561;79;21031;-63
2021/11/03 11:35:58;;;;;;;34.63;25.55;;;;;;;12.83;84.02;99106.00;1747966;82;21008;-63
2021/11/03 11:38:53;;;;;;;38.48;23.45;;;;;;;12.93;83.62;99101.95;1747640;81;21480;-65
2021/11/03 11:41:31;;;;;;;38.23;23.85;;;;;;;13.05;83.10;99091.46;1745720;81;21164;-63
2021/11/03 11:44:06;;;;;;;34.03;21.05;;;;;;;13.18;82.31;99099.75;1746903;81;21022;-64
2021/11/03 11:46:34;;;;;;;30.02;22.10;;;;;;;13.24;81.17;99100.55;1747047;81;21007;-65
2021/11/03 11:49:33;;;;;;;24.55;18.45;;;;;;;13.34;80.21;99104.79;1743416;81;21616;-64
2021/11/03 11:52:07;;;;;;;31.15;21.33;;;;;;;13.36;78.29;99114.94;1743902;81;20988;-66
2021/11/03 11:54:38;;;;;;;27.07;20.20;;;;;;;13.27;77.15;99114.28;1714765;81;21587;-64
2021/11/03 11:57:21;;;;;;;24.40;18.02;;;;;;;13.14;76.87;99120.38;1743496;81;21067;-63
2021/11/03 12:00:10;;;;;;;28.67;18.20;;;;;;;13.03;77.02;99122.83;1743348;81;21061;-64
2021/11/03 12:02:57;;;;;;;26.33;17.95;;;;;;;12.95;76.55;99119.02;1743154;81;21083;-65
2021/11/03 12:05:45;;;;;;;28.15;20.02;;;;;;;12.89;76.37;99125.37;1742499;81;21086;-65
2021/11/03 12:08:18;;;;;;;25.40;17.77;;;;;;;12.91;76.21;99126.41;1737144;81;21453;-64